createdAt,value
2018-10-06T00:05:15.670Z,6.0
2018-10-06T00:15:32.407Z,1.9
2018-10-06T01:51:17.141Z,5.6
2018-10-06T02:48:35.907Z,7.7
2018-10-06T02:59:52.489Z,9.7
2018-10-06T03:15:11.030Z,7.3
2018-10-06T03:25:27.308Z,4.6
2018-10-06T04:53:08.057Z,3.8
2018-10-06T05:35:29.225Z,9.8
2018-10-06T05:51:14.784Z,9.0
2018-10-06T07:25:54.084Z,31.0
2018-10-06T07:57:13.322Z,68.7
2018-10-06T08:11:16.551Z,26.9
2018-10-06T08:21:29.794Z,12.9
2018-10-06T08:31:45.112Z,7.9
2018-10-06T08:42:48.962Z,7.1
2018-10-06T08:53:38.965Z,6.3
2018-10-06T09:06:18.797Z,5.6
2018-10-06T09:17:54.809Z,4.5
2018-10-06T09:28:51.696Z,3.4
2018-10-06T09:52:31.256Z,3.1
2018-10-06T10:03:24.484Z,2.2
2018-10-06T10:13:39.422Z,2.8
2018-10-06T11:32:49.563Z,2.3
2018-10-06T12:02:57.982Z,1.5
2018-10-06T12:29:30.722Z,1.6
2018-10-06T13:20:11.184Z,1.5
2018-10-06T14:05:16.594Z,1.6
2018-10-06T14:16:10.842Z,1.6
2018-10-06T14:26:28.005Z,2.8
2018-10-06T14:37:38.707Z,2.1
2018-10-06T14:48:59.818Z,1.6
2018-10-06T14:59:45.556Z,2.0
2018-10-06T15:09:59.124Z,2.8
2018-10-06T15:20:13.361Z,1.8
2018-10-06T15:30:27.379Z,2.2
2018-10-06T15:40:41.744Z,1.9
2018-10-06T15:53:31.979Z,2.3
2018-10-06T16:05:56.368Z,2.3
2018-10-06T16:43:58.484Z,2.7
2018-10-06T16:56:13.943Z,3.6
2018-10-06T17:45:54.452Z,9.5
2018-10-06T17:56:11.645Z,4.2
2018-10-06T18:19:30.190Z,7.1
2018-10-06T18:44:33.644Z,8.4
2018-10-06T18:56:37.695Z,8.4
2018-10-06T19:08:38.221Z,9.0
2018-10-06T19:20:47.532Z,10.6
2018-10-06T19:31:04.126Z,8.1
2018-10-06T19:41:58.034Z,6.6
2018-10-06T19:52:15.354Z,8.7
2018-10-06T20:02:35.701Z,8.0
2018-10-06T20:12:51.311Z,9.7
2018-10-06T20:25:12.666Z,13.8
2018-10-06T20:35:58.091Z,13.9
2018-10-06T20:46:12.118Z,10.8
2018-10-06T20:56:23.467Z,12.5
2018-10-06T21:08:16.389Z,19.2
2018-10-06T21:19:52.841Z,18.9
2018-10-06T21:31:31.634Z,21.2
2018-10-06T21:42:37.523Z,24.3
2018-10-06T21:54:06.029Z,24.8
2018-10-06T22:04:20.224Z,15.4
2018-10-06T22:14:34.170Z,13.9
2018-10-06T22:24:45.257Z,18.7
2018-10-06T22:34:59.726Z,18.6
2018-10-06T22:45:13.814Z,25.1
2018-10-06T22:57:05.557Z,31.0
2018-10-06T23:09:26.069Z,35.3
2018-10-06T23:21:10.451Z,31.7
2018-10-06T23:33:13.041Z,30.6
2018-10-06T23:44:42.192Z,26.1
2018-10-06T23:55:30.376Z,25.1
